sensor_id;sensor_type;location;lat;lon;timestamp;pressure;altitude;pressure_sealevel;temperature;humidity
29215;BME280;16252;49.816;7.964;2023-05-10T00:02:09;99313.34;;;16.56;74.17
29215;BME280;16252;49.816;7.964;2023-05-10T00:04:34;99320.25;;;16.59;74.13
29215;BME280;16252;49.816;7.964;2023-05-10T00:06:59;99308.09;;;16.55;73.87
29215;BME280;16252;49.816;7.964;2023-05-10T00:09:25;99312.47;;;16.56;73.66
29215;BME280;16252;49.816;7.964;2023-05-10T00:11:50;99347.22;;;16.67;73.96
29215;BME280;16252;49.816;7.964;2023-05-10T00:14:15;99331.38;;;16.56;73.77
29215;BME280;16252;49.816;7.964;2023-05-10T00:16:41;99322.09;;;16.50;74.10
29215;BME280;16252;49.816;7.964;2023-05-10T00:19:06;99315.38;;;16.46;73.41
29215;BME280;16252;49.816;7.964;2023-05-10T00:21:31;99306.09;;;16.40;73.47
29215;BME280;16252;49.816;7.964;2023-05-10T00:23:58;99326.81;;;16.48;73.38
29215;BME280;16252;49.816;7.964;2023-05-10T00:26:24;99330.72;;;16.37;73.21
29215;BME280;16252;49.816;7.964;2023-05-10T00:28:49;99352.66;;;16.51;73.49
29215;BME280;16252;49.816;7.964;2023-05-10T00:31:14;99337.66;;;16.40;73.48
29215;BME280;16252;49.816;7.964;2023-05-10T00:33:39;99302.41;;;16.17;73.34
29215;BME280;16252;49.816;7.964;2023-05-10T00:36:05;99321.97;;;16.27;73.51
29215;BME280;16252;49.816;7.964;2023-05-10T00:38:32;99335.13;;;16.30;73.62
29215;BME280;16252;49.816;7.964;2023-05-10T00:40:58;99344.41;;;16.36;73.58
29215;BME280;16252;49.816;7.964;2023-05-10T00:43:23;99324.19;;;16.23;73.81
29215;BME280;16252;49.816;7.964;2023-05-10T00:45:49;99332.44;;;16.22;74.05
29215;BME280;16252;49.816;7.964;2023-05-10T00:48:14;99307.47;;;16.12;73.90
29215;BME280;16252;49.816;7.964;2023-05-10T00:50:39;99325.38;;;16.21;73.76
29215;BME280;16252;49.816;7.964;2023-05-10T00:53:05;99327.56;;;16.25;74.26
29215;BME280;16252;49.816;7.964;2023-05-10T00:55:31;99267.00;;;15.87;73.54
29215;BME280;16252;49.816;7.964;2023-05-10T00:57:56;99318.94;;;16.22;73.62
29215;BME280;16252;49.816;7.964;2023-05-10T01:00:22;99321.84;;;16.20;74.47
29215;BME280;16252;49.816;7.964;2023-05-10T01:02:47;99321.97;;;16.27;74.25
29215;BME280;16252;49.816;7.964;2023-05-10T01:05:12;99326.19;;;16.30;74.51
29215;BME280;16252;49.816;7.964;2023-05-10T01:07:38;99295.50;;;16.14;74.25
29215;BME280;16252;49.816;7.964;2023-05-10T01:10:05;99314.22;;;16.32;74.25
29215;BME280;16252;49.816;7.964;2023-05-10T01:12:31;99268.88;;;15.95;73.84
29215;BME280;16252;49.816;7.964;2023-05-10T01:14:57;99318.28;;;16.28;73.82
29215;BME280;16252;49.816;7.964;2023-05-10T01:17:23;99313.38;;;16.23;73.91
29215;BME280;16252;49.816;7.964;2023-05-10T01:19:49;99305.78;;;16.19;73.73
29215;BME280;16252;49.816;7.964;2023-05-10T01:28:07;99350.81;;;16.35;72.88
29215;BME280;16252;49.816;7.964;2023-05-10T01:30:44;99354.22;;;16.29;73.03
29215;BME280;16252;49.816;7.964;2023-05-10T01:33:24;99321.81;;;16.12;73.07
29215;BME280;16252;49.816;7.964;2023-05-10T01:36:01;99347.28;;;16.26;73.43
29215;BME280;16252;49.816;7.964;2023-05-10T01:38:35;99330.09;;;16.11;73.68
29215;BME280;16252;49.816;7.964;2023-05-10T01:43:50;99284.56;;;15.83;73.47
29215;BME280;16252;49.816;7.964;2023-05-10T01:46:25;99342.22;;;16.15;73.57
29215;BME280;16252;49.816;7.964;2023-05-10T01:48:54;99348.28;;;16.17;73.43
29215;BME280;16252;49.816;7.964;2023-05-10T01:51:23;99333.97;;;16.08;73.54
29215;BME280;16252;49.816;7.964;2023-05-10T01:53:51;99315.75;;;15.94;73.66
29215;BME280;16252;49.816;7.964;2023-05-10T01:56:22;99353.69;;;16.17;73.53
29215;BME280;16252;49.816;7.964;2023-05-10T01:58:50;99326.19;;;15.97;73.51
29215;BME280;16252;49.816;7.964;2023-05-10T02:01:18;99310.16;;;15.87;73.42
29215;BME280;16252;49.816;7.964;2023-05-10T02:03:46;99352.69;;;16.10;73.25
29215;BME280;16252;49.816;7.964;2023-05-10T02:06:13;99340.03;;;16.02;73.07
29215;BME280;16252;49.816;7.964;2023-05-10T02:08:41;99366.50;;;16.15;72.99
29215;BME280;16252;49.816;7.964;2023-05-10T02:11:10;99348.81;;;16.04;73.16
29215;BME280;16252;49.816;7.964;2023-05-10T02:13:37;99360.97;;;16.08;73.12
29215;BME280;16252;49.816;7.964;2023-05-10T02:16:05;99355.38;;;16.01;73.34
29215;BME280;16252;49.816;7.964;2023-05-10T02:18:32;99367.00;;;16.10;73.30
29215;BME280;16252;49.816;7.964;2023-05-10T02:20:59;99342.03;;;15.92;72.93
29215;BME280;16252;49.816;7.964;2023-05-10T02:23:25;99350.47;;;15.97;72.92
29215;BME280;16252;49.816;7.964;2023-05-10T02:25:52;99351.84;;;15.93;73.12
29215;BME280;16252;49.816;7.964;2023-05-10T02:28:19;99372.25;;;16.03;73.16
29215;BME280;16252;49.816;7.964;2023-05-10T02:30:47;99365.69;;;15.98;73.42
29215;BME280;16252;49.816;7.964;2023-05-10T02:33:13;99368.19;;;15.99;73.17
29215;BME280;16252;49.816;7.964;2023-05-10T02:35:39;99351.31;;;15.89;72.92
29215;BME280;16252;49.816;7.964;2023-05-10T02:38:05;99349.63;;;15.88;73.02
29215;BME280;16252;49.816;7.964;2023-05-10T02:40:32;99383.38;;;16.00;72.94
29215;BME280;16252;49.816;7.964;2023-05-10T02:42:59;99364.66;;;15.82;73.19
29215;BME280;16252;49.816;7.964;2023-05-10T02:45:29;99386.38;;;15.97;73.16
29215;BME280;16252;49.816;7.964;2023-05-10T02:47:56;99368.88;;;15.85;73.36
29215;BME280;16252;49.816;7.964;2023-05-10T02:50:22;99388.75;;;15.92;73.16
29215;BME280;16252;49.816;7.964;2023-05-10T02:52:50;99366.16;;;15.85;73.37
29215;BME280;16252;49.816;7.964;2023-05-10T02:55:22;99377.13;;;15.92;73.14
29215;BME280;16252;49.816;7.964;2023-05-10T02:58:00;99382.34;;;15.93;72.87
29215;BME280;16252;49.816;7.964;2023-05-10T03:00:26;99362.94;;;15.73;73.25
29215;BME280;16252;49.816;7.964;2023-05-10T03:02:52;99361.41;;;15.71;73.25
29215;BME280;16252;49.816;7.964;2023-05-10T03:05:18;99387.91;;;15.84;73.33
29215;BME280;16252;49.816;7.964;2023-05-10T03:07:44;99375.75;;;15.79;73.38
29215;BME280;16252;49.816;7.964;2023-05-10T03:10:10;99334.34;;;15.46;73.61
29215;BME280;16252;49.816;7.964;2023-05-10T03:16:14;99350.25;;;15.66;73.14
29215;BME280;16252;49.816;7.964;2023-05-10T03:18:34;99374.25;;;15.85;73.38
29215;BME280;16252;49.816;7.964;2023-05-10T03:21:03;99379.66;;;15.85;73.33
29215;BME280;16252;49.816;7.964;2023-05-10T03:23:35;99370.69;;;15.76;73.19
29215;BME280;16252;49.816;7.964;2023-05-10T03:26:04;99399.88;;;15.81;73.12
29215;BME280;16252;49.816;7.964;2023-05-10T03:28:31;99378.88;;;15.67;73.20
29215;BME280;16252;49.816;7.964;2023-05-10T03:30:59;99336.69;;;15.41;73.03
29215;BME280;16252;49.816;7.964;2023-05-10T03:33:24;99392.94;;;15.70;72.97
29215;BME280;16252;49.816;7.964;2023-05-10T03:35:50;99369.41;;;15.54;72.82
29215;BME280;16252;49.816;7.964;2023-05-10T03:38:15;99355.91;;;15.46;72.79
29215;BME280;16252;49.816;7.964;2023-05-10T03:40:40;99358.81;;;15.45;73.08
29215;BME280;16252;49.816;7.964;2023-05-10T03:43:06;99384.94;;;15.60;73.07
29215;BME280;16252;49.816;7.964;2023-05-10T03:45:31;99386.63;;;15.61;72.92
29215;BME280;16252;49.816;7.964;2023-05-10T03:47:57;99406.44;;;15.78;72.84
29215;BME280;16252;49.816;7.964;2023-05-10T03:50:23;99346.50;;;15.42;72.84
29215;BME280;16252;49.816;7.964;2023-05-10T03:52:48;99358.47;;;15.48;72.80
29215;BME280;16252;49.816;7.964;2023-05-10T03:55:13;99378.03;;;15.58;72.99
29215;BME280;16252;49.816;7.964;2023-05-10T03:57:39;99379.22;;;15.64;73.12
29215;BME280;16252;49.816;7.964;2023-05-10T04:00:04;99396.97;;;15.74;72.56
29215;BME280;16252;49.816;7.964;2023-05-10T04:02:30;99361.84;;;15.50;72.81
29215;BME280;16252;49.816;7.964;2023-05-10T04:04:56;99395.91;;;15.67;72.38
29215;BME280;16252;49.816;7.964;2023-05-10T04:07:21;99417.22;;;15.78;73.03
29215;BME280;16252;49.816;7.964;2023-05-10T04:09:46;99411.81;;;15.78;72.76
29215;BME280;16252;49.816;7.964;2023-05-10T04:12:12;99405.75;;;15.76;72.71
29215;BME280;16252;49.816;7.964;2023-05-10T04:14:37;99430.22;;;15.91;72.19
29215;BME280;16252;49.816;7.964;2023-05-10T04:17:02;99406.78;;;15.75;72.30
29215;BME280;16252;49.816;7.964;2023-05-10T04:19:31;99421.13;;;15.92;72.12
29215;BME280;16252;49.816;7.964;2023-05-10T04:21:57;99420.59;;;15.80;72.70
29215;BME280;16252;49.816;7.964;2023-05-10T04:24:23;99413.69;;;15.78;72.63
29215;BME280;16252;49.816;7.964;2023-05-10T04:26:48;99416.19;;;15.79;72.57
29215;BME280;16252;49.816;7.964;2023-05-10T04:29:14;99426.16;;;15.87;72.58
29215;BME280;16252;49.816;7.964;2023-05-10T04:31:39;99420.41;;;15.82;72.67
29215;BME280;16252;49.816;7.964;2023-05-10T04:34:04;99420.59;;;15.80;72.52
29215;BME280;16252;49.816;7.964;2023-05-10T04:36:30;99425.50;;;15.85;72.54
29215;BME280;16252;49.816;7.964;2023-05-10T04:38:57;99424.50;;;15.86;72.29
29215;BME280;16252;49.816;7.964;2023-05-10T04:41:22;99439.00;;;15.93;72.42
29215;BME280;16252;49.816;7.964;2023-05-10T04:43:48;99432.25;;;15.97;72.55
29215;BME280;16252;49.816;7.964;2023-05-10T04:46:14;99415.03;;;15.82;72.23
29215;BME280;16252;49.816;7.964;2023-05-10T04:48:39;99453.34;;;16.10;72.12
29215;BME280;16252;49.816;7.964;2023-05-10T04:51:05;99423.31;;;15.89;71.65
29215;BME280;16252;49.816;7.964;2023-05-10T04:53:31;99432.09;;;15.99;71.97
29215;BME280;16252;49.816;7.964;2023-05-10T04:55:57;99437.00;;;15.95;71.79
29215;BME280;16252;49.816;7.964;2023-05-10T04:58:22;99445.78;;;16.06;71.81
29215;BME280;16252;49.816;7.964;2023-05-10T05:00:47;99439.50;;;15.97;71.48
29215;BME280;16252;49.816;7.964;2023-05-10T05:03:13;99419.44;;;15.91;71.74
29215;BME280;16252;49.816;7.964;2023-05-10T05:05:38;99427.88;;;15.96;71.66
29215;BME280;16252;49.816;7.964;2023-05-10T05:08:03;99455.56;;;16.15;71.60
29215;BME280;16252;49.816;7.964;2023-05-10T05:10:29;99439.22;;;16.08;71.63
29215;BME280;16252;49.816;7.964;2023-05-10T05:12:55;99445.94;;;16.12;71.29
29215;BME280;16252;49.816;7.964;2023-05-10T05:15:20;99459.09;;;16.15;71.53
29215;BME280;16252;49.816;7.964;2023-05-10T05:17:45;99452.88;;;16.15;71.16
29215;BME280;16252;49.816;7.964;2023-05-10T05:20:10;99450.50;;;16.12;71.48
29215;BME280;16252;49.816;7.964;2023-05-10T05:22:37;99476.84;;;16.26;71.34
29215;BME280;16252;49.816;7.964;2023-05-10T05:25:02;99453.88;;;16.14;71.10
29215;BME280;16252;49.816;7.964;2023-05-10T05:27:28;99464.00;;;16.20;71.33
29215;BME280;16252;49.816;7.964;2023-05-10T05:29:54;99476.34;;;16.31;71.34
29215;BME280;16252;49.816;7.964;2023-05-10T05:32:20;99447.13;;;16.10;70.97
29215;BME280;16252;49.816;7.964;2023-05-10T05:34:45;99483.09;;;16.35;71.27
29215;BME280;16252;49.816;7.964;2023-05-10T05:37:18;99477.88;;;16.41;70.78
29215;BME280;16252;49.816;7.964;2023-05-10T05:39:44;99471.47;;;16.26;70.75
29215;BME280;16252;49.816;7.964;2023-05-10T05:42:11;99480.06;;;16.38;70.86
29215;BME280;16252;49.816;7.964;2023-05-10T05:44:36;99453.41;;;16.18;71.03
29215;BME280;16252;49.816;7.964;2023-05-10T05:47:02;99458.13;;;16.24;70.77
29215;BME280;16252;49.816;7.964;2023-05-10T05:49:27;99481.75;;;16.39;70.72
29215;BME280;16252;49.816;7.964;2023-05-10T05:51:53;99467.41;;;16.30;70.90
29215;BME280;16252;49.816;7.964;2023-05-10T05:54:18;99445.78;;;16.14;70.83
29215;BME280;16252;49.816;7.964;2023-05-10T05:56:43;99470.28;;;16.37;71.08
29215;BME280;16252;49.816;7.964;2023-05-10T05:59:09;99449.69;;;16.28;71.04
29215;BME280;16252;49.816;7.964;2023-05-10T06:01:35;99455.94;;;16.28;71.08
29215;BME280;16252;49.816;7.964;2023-05-10T06:04:00;99464.72;;;16.38;71.37
29215;BME280;16252;49.816;7.964;2023-05-10T06:06:26;99450.69;;;16.27;71.59
29215;BME280;16252;49.816;7.964;2023-05-10T06:08:51;99470.63;;;16.42;71.34
29215;BME280;16252;49.816;7.964;2023-05-10T06:11:17;99469.44;;;16.44;71.52
29215;BME280;16252;49.816;7.964;2023-05-10T06:13:42;99471.63;;;16.49;71.83
29215;BME280;16252;49.816;7.964;2023-05-10T06:16:07;99457.63;;;16.45;71.40
29215;BME280;16252;49.816;7.964;2023-05-10T06:18:33;99474.84;;;16.53;71.14
29215;BME280;16252;49.816;7.964;2023-05-10T06:20:58;99472.13;;;16.53;70.92
29215;BME280;16252;49.816;7.964;2023-05-10T06:23:23;99484.66;;;16.62;70.96
29215;BME280;16252;49.816;7.964;2023-05-10T06:25:50;99433.66;;;16.26;71.27
29215;BME280;16252;49.816;7.964;2023-05-10T06:28:16;99476.53;;;16.54;71.39
29215;BME280;16252;49.816;7.964;2023-05-10T06:30:41;99477.72;;;16.51;71.13
29215;BME280;16252;49.816;7.964;2023-05-10T06:33:06;99475.88;;;16.52;71.65
29215;BME280;16252;49.816;7.964;2023-05-10T06:35:32;99450.19;;;16.39;71.35
29215;BME280;16252;49.816;7.964;2023-05-10T06:37:58;99459.13;;;16.48;71.44
29215;BME280;16252;49.816;7.964;2023-05-10T06:40:23;99494.63;;;16.78;71.67
29215;BME280;16252;49.816;7.964;2023-05-10T06:42:49;99479.41;;;16.68;71.48
29215;BME280;16252;49.816;7.964;2023-05-10T06:45:15;99486.00;;;16.74;71.20
29215;BME280;16252;49.816;7.964;2023-05-10T06:47:41;99493.78;;;16.85;70.97
29215;BME280;16252;49.816;7.964;2023-05-10T06:50:08;99505.94;;;16.98;71.30
29215;BME280;16252;49.816;7.964;2023-05-10T06:52:33;99505.91;;;17.06;71.36
29215;BME280;16252;49.816;7.964;2023-05-10T06:54:59;99465.06;;;16.93;71.31
29215;BME280;16252;49.816;7.964;2023-05-10T06:57:25;99507.94;;;17.20;71.14
29215;BME280;16252;49.816;7.964;2023-05-10T06:59:50;99476.50;;;17.11;70.84
29215;BME280;16252;49.816;7.964;2023-05-10T07:02:16;99505.84;;;17.39;71.04
29215;BME280;16252;49.816;7.964;2023-05-10T07:04:42;99499.78;;;17.45;70.66
29215;BME280;16252;49.816;7.964;2023-05-10T07:07:07;99463.78;;;17.36;70.46
29215;BME280;16252;49.816;7.964;2023-05-10T07:09:33;99503.91;;;17.64;70.22
29215;BME280;16252;49.816;7.964;2023-05-10T07:11:58;99504.91;;;17.71;70.08
29215;BME280;16252;49.816;7.964;2023-05-10T07:14:23;99497.47;;;17.73;69.75
29215;BME280;16252;49.816;7.964;2023-05-10T07:16:49;99490.03;;;17.75;69.94
29215;BME280;16252;49.816;7.964;2023-05-10T07:19:14;99507.25;;;17.82;69.63
29215;BME280;16252;49.816;7.964;2023-05-10T07:21:39;99531.97;;;18.10;70.10
29215;BME280;16252;49.816;7.964;2023-05-10T07:24:07;99497.72;;;17.94;69.26
29215;BME280;16252;49.816;7.964;2023-05-10T07:26:32;99538.69;;;18.23;69.13
29215;BME280;16252;49.816;7.964;2023-05-10T07:28:58;99539.97;;;18.35;69.33
29215;BME280;16252;49.816;7.964;2023-05-10T07:31:23;99529.88;;;18.29;69.58
29215;BME280;16252;49.816;7.964;2023-05-10T07:33:48;99526.06;;;18.38;69.25
29215;BME280;16252;49.816;7.964;2023-05-10T07:36:13;99535.47;;;18.50;68.74
29215;BME280;16252;49.816;7.964;2023-05-10T07:38:39;99535.44;;;18.58;68.20
29215;BME280;16252;49.816;7.964;2023-05-10T07:41:05;99525.78;;;18.56;68.55
29215;BME280;16252;49.816;7.964;2023-05-10T07:43:30;99532.13;;;18.71;68.39
29215;BME280;16252;49.816;7.964;2023-05-10T07:45:55;99537.00;;;18.76;67.90
29215;BME280;16252;49.816;7.964;2023-05-10T07:48:22;99525.50;;;18.74;67.42
29215;BME280;16252;49.816;7.964;2023-05-10T07:50:47;99548.03;;;18.97;66.93
29215;BME280;16252;49.816;7.964;2023-05-10T07:53:13;99529.13;;;18.89;66.89
29215;BME280;16252;49.816;7.964;2023-05-10T07:55:38;99533.97;;;18.94;66.63
29215;BME280;16252;49.816;7.964;2023-05-10T07:58:03;99525.84;;;18.94;66.35
29215;BME280;16252;49.816;7.964;2023-05-10T08:00:29;99532.31;;;18.93;66.45
29215;BME280;16252;49.816;7.964;2023-05-10T08:02:54;99544.88;;;19.09;66.46
29215;BME280;16252;49.816;7.964;2023-05-10T08:05:19;99536.16;;;18.98;66.20
29215;BME280;16252;49.816;7.964;2023-05-10T08:07:45;99545.41;;;19.04;66.45
29215;BME280;16252;49.816;7.964;2023-05-10T08:10:10;99532.97;;;18.95;66.60
29215;BME280;16252;49.816;7.964;2023-05-10T08:12:38;99552.03;;;19.01;65.58
29215;BME280;16252;49.816;7.964;2023-05-10T08:15:04;99550.66;;;19.05;65.88
29215;BME280;16252;49.816;7.964;2023-05-10T08:17:30;99506.19;;;18.77;65.61
29215;BME280;16252;49.816;7.964;2023-05-10T08:19:55;99530.63;;;18.92;64.88
29215;BME280;16252;49.816;7.964;2023-05-10T08:22:20;99455.47;;;18.62;64.67
29215;BME280;16252;49.816;7.964;2023-05-10T08:24:46;99540.97;;;19.26;65.25
29215;BME280;16252;49.816;7.964;2023-05-10T08:27:11;99541.56;;;19.51;65.51
29215;BME280;16252;49.816;7.964;2023-05-10T08:29:37;99548.16;;;19.86;64.24
29215;BME280;16252;49.816;7.964;2023-05-10T08:32:03;99547.03;;;20.10;64.32
29215;BME280;16252;49.816;7.964;2023-05-10T08:34:28;99516.19;;;20.18;64.20
29215;BME280;16252;49.816;7.964;2023-05-10T08:36:53;99530.97;;;20.67;64.44
29215;BME280;16252;49.816;7.964;2023-05-10T08:39:18;99531.69;;;21.04;62.89
29215;BME280;16252;49.816;7.964;2023-05-10T08:41:44;99553.91;;;21.57;62.60
29215;BME280;16252;49.816;7.964;2023-05-10T08:44:10;99552.41;;;21.89;60.69
29215;BME280;16252;49.816;7.964;2023-05-10T08:46:37;99560.59;;;22.24;60.38
29215;BME280;16252;49.816;7.964;2023-05-10T08:49:07;99570.16;;;22.68;60.31
29215;BME280;16252;49.816;7.964;2023-05-10T08:51:36;99527.59;;;22.80;59.88
29215;BME280;16252;49.816;7.964;2023-05-10T08:54:03;99559.09;;;23.29;58.35
29215;BME280;16252;49.816;7.964;2023-05-10T08:56:29;99552.81;;;23.42;56.75
29215;BME280;16252;49.816;7.964;2023-05-10T08:58:56;99536.00;;;23.39;55.48
29215;BME280;16252;49.816;7.964;2023-05-10T09:01:21;99567.72;;;23.53;55.34
29215;BME280;16252;49.816;7.964;2023-05-10T09:03:47;99566.47;;;23.42;55.22
29215;BME280;16252;49.816;7.964;2023-05-10T09:06:13;99582.63;;;23.30;54.46
29215;BME280;16252;49.816;7.964;2023-05-10T09:08:40;99584.94;;;23.07;54.28
29215;BME280;16252;49.816;7.964;2023-05-10T09:11:08;99589.47;;;22.86;55.01
29215;BME280;16252;49.816;7.964;2023-05-10T09:13:35;99588.19;;;22.69;55.12
29215;BME280;16252;49.816;7.964;2023-05-10T09:16:01;99547.59;;;22.33;55.03
29215;BME280;16252;49.816;7.964;2023-05-10T09:18:27;99584.09;;;22.32;54.71
29215;BME280;16252;49.816;7.964;2023-05-10T09:20:52;99577.47;;;22.13;55.19
29215;BME280;16252;49.816;7.964;2023-05-10T09:23:18;99567.88;;;21.82;54.60
29215;BME280;16252;49.816;7.964;2023-05-10T09:25:43;99571.72;;;21.59;54.45
29215;BME280;16252;49.816;7.964;2023-05-10T09:28:08;99591.75;;;21.52;55.23
29215;BME280;16252;49.816;7.964;2023-05-10T09:30:35;99605.81;;;21.34;55.73
29215;BME280;16252;49.816;7.964;2023-05-10T09:33:01;99622.69;;;21.23;55.08
29215;BME280;16252;49.816;7.964;2023-05-10T09:35:28;99626.72;;;21.05;55.79
29215;BME280;16252;49.816;7.964;2023-05-10T09:37:56;99604.13;;;20.68;55.41
29215;BME280;16252;49.816;7.964;2023-05-10T09:40:27;99610.53;;;20.61;55.59
29215;BME280;16252;49.816;7.964;2023-05-10T09:42:57;99610.53;;;20.46;55.62
29215;BME280;16252;49.816;7.964;2023-05-10T09:45:28;99604.78;;;20.19;56.15
29215;BME280;16252;49.816;7.964;2023-05-10T09:47:54;99615.19;;;20.16;56.44
29215;BME280;16252;49.816;7.964;2023-05-10T09:50:20;99586.06;;;19.95;57.19
29215;BME280;16252;49.816;7.964;2023-05-10T09:53:00;99631.94;;;20.19;57.11
29215;BME280;16252;49.816;7.964;2023-05-10T09:58:01;99643.75;;;19.97;56.95
29215;BME280;16252;49.816;7.964;2023-05-10T10:00:27;99644.00;;;19.87;56.88
29215;BME280;16252;49.816;7.964;2023-05-10T10:02:57;99651.03;;;19.81;56.47
29215;BME280;16252;49.816;7.964;2023-05-10T10:05:31;99650.09;;;19.74;57.02
29215;BME280;16252;49.816;7.964;2023-05-10T10:07:57;99643.47;;;19.54;56.68
29215;BME280;16252;49.816;7.964;2023-05-10T10:10:24;99629.41;;;19.35;56.79
29215;BME280;16252;49.816;7.964;2023-05-10T10:12:49;99630.69;;;19.39;56.61
29215;BME280;16252;49.816;7.964;2023-05-10T10:15:15;99628.38;;;19.36;57.54
29215;BME280;16252;49.816;7.964;2023-05-10T10:17:41;99637.47;;;19.43;57.45
29215;BME280;16252;49.816;7.964;2023-05-10T10:20:08;99615.47;;;19.38;56.96
29215;BME280;16252;49.816;7.964;2023-05-10T10:22:34;99641.88;;;19.59;57.57
29215;BME280;16252;49.816;7.964;2023-05-10T10:25:00;99617.56;;;19.51;57.61
29215;BME280;16252;49.816;7.964;2023-05-10T10:33:28;99630.84;;;19.99;57.12
29215;BME280;16252;49.816;7.964;2023-05-10T10:35:58;99613.69;;;19.98;56.09
29215;BME280;16252;49.816;7.964;2023-05-10T10:38:25;99648.34;;;20.26;56.46
29215;BME280;16252;49.816;7.964;2023-05-10T10:41:09;99616.19;;;20.29;56.21
29215;BME280;16252;49.816;7.964;2023-05-10T10:43:35;99633.72;;;20.56;56.07
29215;BME280;16252;49.816;7.964;2023-05-10T10:46:16;99638.78;;;20.81;55.44
29215;BME280;16252;49.816;7.964;2023-05-10T10:48:50;99623.88;;;20.92;55.29
29215;BME280;16252;49.816;7.964;2023-05-10T10:51:32;99597.28;;;20.94;55.03
29215;BME280;16252;49.816;7.964;2023-05-10T10:54:09;99627.81;;;21.32;55.36
29215;BME280;16252;49.816;7.964;2023-05-10T10:56:34;99553.84;;;21.00;54.33
29215;BME280;16252;49.816;7.964;2023-05-10T10:58:59;99625.91;;;21.54;53.87
29215;BME280;16252;49.816;7.964;2023-05-10T11:01:32;99638.84;;;21.74;52.98
29215;BME280;16252;49.816;7.964;2023-05-10T11:06:30;99614.50;;;21.66;53.38
29215;BME280;16252;49.816;7.964;2023-05-10T11:09:05;99640.97;;;21.78;53.50
29215;BME280;16252;49.816;7.964;2023-05-10T11:11:30;99636.53;;;21.77;52.95
29215;BME280;16252;49.816;7.964;2023-05-10T11:14:03;99642.44;;;21.81;52.91
29215;BME280;16252;49.816;7.964;2023-05-10T11:16:44;99635.06;;;21.75;53.96
29215;BME280;16252;49.816;7.964;2023-05-10T11:19:15;99644.53;;;21.79;53.05
29215;BME280;16252;49.816;7.964;2023-05-10T11:21:49;99644.34;;;21.80;52.67
29215;BME280;16252;49.816;7.964;2023-05-10T11:24:22;99633.19;;;21.75;52.62
29215;BME280;16252;49.816;7.964;2023-05-10T11:26:53;99639.44;;;21.69;53.59
29215;BME280;16252;49.816;7.964;2023-05-10T11:29:18;99633.16;;;21.69;52.96
29215;BME280;16252;49.816;7.964;2023-05-10T11:31:44;99649.31;;;21.77;52.95
29215;BME280;16252;49.816;7.964;2023-05-10T11:34:10;99629.78;;;21.67;52.98
29215;BME280;16252;49.816;7.964;2023-05-10T11:36:36;99633.16;;;21.69;52.18
29215;BME280;16252;49.816;7.964;2023-05-10T11:39:02;99649.28;;;21.70;52.96
29215;BME280;16252;49.816;7.964;2023-05-10T11:41:29;99657.50;;;21.77;52.14
29215;BME280;16252;49.816;7.964;2023-05-10T11:43:56;99651.38;;;21.68;52.77
29215;BME280;16252;49.816;7.964;2023-05-10T11:46:24;99665.00;;;21.75;51.99
29215;BME280;16252;49.816;7.964;2023-05-10T11:48:51;99658.69;;;21.68;52.13
29215;BME280;16252;49.816;7.964;2023-05-10T11:51:23;99645.34;;;21.51;51.79
29215;BME280;16252;49.816;7.964;2023-05-10T11:53:50;99657.03;;;21.45;52.16
29215;BME280;16252;49.816;7.964;2023-05-10T11:56:16;99659.84;;;21.37;52.23
29215;BME280;16252;49.816;7.964;2023-05-10T11:58:41;99640.69;;;21.24;52.17
29215;BME280;16252;49.816;7.964;2023-05-10T12:01:07;99668.81;;;21.31;52.97
29215;BME280;16252;49.816;7.964;2023-05-10T12:03:34;99669.78;;;21.23;52.27
29215;BME280;16252;49.816;7.964;2023-05-10T12:06:00;99667.44;;;21.20;52.55
29215;BME280;16252;49.816;7.964;2023-05-10T12:08:27;99645.75;;;21.05;52.90
29215;BME280;16252;49.816;7.964;2023-05-10T12:11:03;99663.91;;;21.19;52.96
29215;BME280;16252;49.816;7.964;2023-05-10T12:13:28;99657.53;;;21.12;53.04
29215;BME280;16252;49.816;7.964;2023-05-10T12:15:57;99671.09;;;21.27;52.98
29215;BME280;16252;49.816;7.964;2023-05-10T12:18:23;99656.56;;;21.20;53.18
29215;BME280;16252;49.816;7.964;2023-05-10T12:20:52;99661.47;;;21.31;53.16
29215;BME280;16252;49.816;7.964;2023-05-10T12:23:19;99665.28;;;21.37;53.49
29215;BME280;16252;49.816;7.964;2023-05-10T12:25:45;99651.06;;;21.35;53.23
29215;BME280;16252;49.816;7.964;2023-05-10T12:28:10;99635.75;;;21.34;53.04
29215;BME280;16252;49.816;7.964;2023-05-10T12:30:36;99663.66;;;21.57;53.00
29215;BME280;16252;49.816;7.964;2023-05-10T12:33:10;99664.38;;;21.73;53.27
29215;BME280;16252;49.816;7.964;2023-05-10T12:35:54;99658.81;;;21.88;52.92
29215;BME280;16252;49.816;7.964;2023-05-10T12:38:37;99658.09;;;22.00;53.54
29215;BME280;16252;49.816;7.964;2023-05-10T12:41:08;99643.41;;;22.01;52.47
29215;BME280;16252;49.816;7.964;2023-05-10T12:43:35;99658.81;;;22.16;52.96
29215;BME280;16252;49.816;7.964;2023-05-10T12:46:07;99662.53;;;22.36;52.56
29215;BME280;16252;49.816;7.964;2023-05-10T12:48:34;99649.25;;;22.26;52.04
29215;BME280;16252;49.816;7.964;2023-05-10T12:51:00;99648.25;;;22.34;51.91
29215;BME280;16252;49.816;7.964;2023-05-10T12:53:26;99616.09;;;22.23;51.81
29215;BME280;16252;49.816;7.964;2023-05-10T12:55:51;99637.16;;;22.42;50.83
29215;BME280;16252;49.816;7.964;2023-05-10T12:58:17;99635.28;;;22.43;50.57
29215;BME280;16252;49.816;7.964;2023-05-10T13:00:42;99642.06;;;22.54;49.95
29215;BME280;16252;49.816;7.964;2023-05-10T13:03:08;99665.16;;;22.64;50.23
29215;BME280;16252;49.816;7.964;2023-05-10T13:05:35;99619.34;;;22.40;50.42
29215;BME280;16252;49.816;7.964;2023-05-10T13:08:01;99658.88;;;22.64;49.71
29215;BME280;16252;49.816;7.964;2023-05-10T13:10:26;99635.28;;;22.43;49.47
29215;BME280;16252;49.816;7.964;2023-05-10T13:12:51;99661.13;;;22.54;49.70
29215;BME280;16252;49.816;7.964;2023-05-10T13:15:17;99605.34;;;22.15;49.12
29215;BME280;16252;49.816;7.964;2023-05-10T13:17:42;99640.06;;;22.34;49.69
29215;BME280;16252;49.816;7.964;2023-05-10T13:20:08;99641.09;;;22.33;49.54
29215;BME280;16252;49.816;7.964;2023-05-10T13:22:34;99662.34;;;22.44;49.71